Time;durP1;ratioP1;P1;durP2;ratioP2;P2;SDS_P1;SDS_P2;PMS_P1;PMS_P2;Temp;Humidity;BMP_temperature;BMP_pressure;BME280_temperature;BME280_humidity;BME280_pressure;Samples;Min_cycle;Max_cycle;Signal;HPM_P1;HPM_P2
2022/02/04 00:20:10;;;;;;;16.17;11.02;;;;;;;8.62;59.24;101733.47;5009881;28;20052;-63
2022/02/04 00:21:29;;;;;;;18.27;11.15;;;;;;;8.41;59.71;101740.22;5004450;28;20057;-62
2022/02/04 00:23:59;;;;;;;19.52;10.88;;;;;;;8.39;59.57;101737.63;5009150;28;20556;-63
2022/02/04 00:26:32;;;;;;;17.02;11.00;;;;;;;8.35;59.59;101743.88;5009323;28;20049;-63
2022/02/04 00:29:49;;;;;;;16.35;11.13;;;;;;;8.30;59.60;101746.66;5009582;28;20100;-62
2022/02/04 00:31:55;;;;;;;19.25;11.15;;;;;;;8.26;59.34;101744.16;5000932;28;20548;-63
2022/02/04 00:34:24;;;;;;;17.20;10.57;;;;;;;8.22;59.35;101743.41;5008841;28;20046;-63
2022/02/04 00:39:22;;;;;;;16.52;10.93;;;;;;;8.23;59.09;101742.50;5009588;28;20042;-63
2022/02/04 00:41:50;;;;;;;20.83;11.93;;;;;;;8.23;59.11;101733.78;5009652;28;20046;-63
2022/02/04 00:44:24;;;;;;;17.08;11.52;;;;;;;8.21;59.16;101739.06;5009169;28;20423;-63
2022/02/04 00:47:10;;;;;;;19.60;11.57;;;;;;;8.21;59.20;101739.06;5009291;28;20056;-63
2022/02/04 00:50:01;;;;;;;22.98;12.20;;;;;;;8.21;59.24;101740.84;5007368;28;20046;-63
2022/02/04 00:53:00;;;;;;;18.17;10.50;;;;;;;8.20;59.19;101747.81;5009053;28;20045;-62
2022/02/04 00:55:36;;;;;;;18.38;10.60;;;;;;;8.17;59.30;101740.06;5009258;28;20108;-63
2022/02/04 01:25:57;;;;;;;23.02;10.82;;;;;;;8.10;59.42;101723.72;5000496;28;20049;-62
2022/02/04 01:28:27;;;;;;;18.45;10.85;;;;;;;8.10;59.40;101723.72;5012530;28;20046;-62
2022/02/04 01:30:55;;;;;;;19.23;11.57;;;;;;;8.10;59.42;101721.09;5012679;28;20049;-63
2022/02/04 01:33:22;;;;;;;15.50;10.18;;;;;;;8.12;59.48;101721.06;5012622;28;20058;-63
2022/02/04 01:35:49;;;;;;;16.98;10.40;;;;;;;8.11;59.36;101722.81;5012681;28;20056;-63
2022/02/04 01:38:16;;;;;;;18.38;10.85;;;;;;;8.09;59.64;101722.00;5012515;28;20057;-63
2022/02/04 01:40:42;;;;;;;16.35;11.10;;;;;;;8.10;59.42;101720.22;5011136;28;20042;-62
2022/02/04 01:43:09;;;;;;;18.20;10.60;;;;;;;8.13;59.59;101720.16;5012308;28;20049;-62
2022/02/04 01:45:36;;;;;;;18.95;11.27;;;;;;;8.13;59.41;101712.31;5012173;28;20096;-62
2022/02/04 01:48:03;;;;;;;16.35;11.00;;;;;;;8.13;59.37;101707.94;5011587;28;20061;-62
2022/02/04 01:50:31;;;;;;;17.27;10.43;;;;;;;8.15;59.40;101708.75;5011891;28;20054;-62
2022/02/04 01:52:59;;;;;;;17.13;10.68;;;;;;;8.15;59.47;101708.75;5012408;28;20061;-62
2022/02/04 01:55:28;;;;;;;20.52;10.75;;;;;;;8.16;59.61;101709.59;5012019;28;20069;-62
2022/02/04 01:57:55;;;;;;;19.95;11.82;;;;;;;8.18;59.56;101705.19;5011975;28;20449;-63
2022/02/04 02:00:22;;;;;;;16.98;11.00;;;;;;;8.20;59.73;101698.13;5012102;28;20515;-63
2022/02/04 02:02:51;;;;;;;17.92;11.35;;;;;;;8.20;59.75;101690.28;5011608;28;20495;-63
2022/02/04 02:05:17;;;;;;;17.67;10.63;;;;;;;8.25;59.80;101695.38;5011743;28;20065;-64
2022/02/04 02:07:48;;;;;;;16.17;10.02;;;;;;;8.25;59.86;101684.91;5012011;28;20049;-64
2022/02/04 02:10:19;;;;;;;17.38;10.73;;;;;;;8.25;59.81;101683.19;5010794;28;20046;-64
2022/02/04 02:15:28;;;;;;;15.32;10.25;;;;;;;8.26;59.80;101677.03;5014652;28;20570;-64
2022/02/04 02:51:35;;;;;;;16.38;10.18;;;;;;;8.34;60.83;101629.69;5014454;28;20426;-64
2022/02/04 02:56:58;;;;;;;17.80;10.48;;;;;;;8.36;61.12;101619.22;5014043;28;20046;-64
2022/02/04 02:59:16;;;;;;;17.02;10.25;;;;;;;8.39;61.01;101614.72;5013842;28;20487;-64
2022/02/04 03:01:49;;;;;;;18.30;10.55;;;;;;;8.42;61.25;101605.94;5013865;28;20049;-64
2022/02/04 03:04:17;;;;;;;16.35;11.05;;;;;;;8.44;61.12;101601.50;5013947;28;20053;-64
2022/02/04 03:06:46;;;;;;;16.33;10.73;;;;;;;8.45;61.26;101604.03;5013859;28;20398;-64
2022/02/04 03:09:14;;;;;;;17.45;11.40;;;;;;;8.48;61.47;101604.00;5014005;28;20048;-65
2022/02/04 03:11:41;;;;;;;20.65;11.57;;;;;;;8.49;61.38;101600.47;5013955;28;20050;-65
2022/02/04 03:14:09;;;;;;;15.95;10.80;;;;;;;8.53;61.35;101603.81;5014061;28;20085;-64
2022/02/04 03:16:36;;;;;;;19.88;10.77;;;;;;;8.54;61.36;101597.69;5013511;28;20046;-64
2022/02/04 03:19:05;;;;;;;14.95;10.35;;;;;;;8.56;61.48;101593.25;5008511;28;20045;-64
2022/02/04 03:21:39;;;;;;;16.90;10.85;;;;;;;8.57;61.51;101594.97;5010370;28;20092;-64
2022/02/04 03:24:11;;;;;;;18.45;11.05;;;;;;;8.58;61.54;101598.44;5010480;28;20157;-64
2022/02/04 03:26:57;;;;;;;17.73;10.48;;;;;;;8.59;61.60;101595.75;5010154;28;20072;-64
2022/02/04 03:29:32;;;;;;;19.60;10.70;;;;;;;8.59;61.68;101595.75;5009475;28;20056;-64
2022/02/04 03:32:07;;;;;;;14.52;10.38;;;;;;;8.61;61.63;101601.81;5010407;28;20041;-64
2022/02/04 03:34:34;;;;;;;20.33;10.70;;;;;;;8.59;61.75;101600.16;5009760;28;20092;-64
2022/02/04 03:37:01;;;;;;;16.05;10.32;;;;;;;8.58;62.09;101591.47;5010367;28;20050;-64
2022/02/04 03:39:27;;;;;;;14.65;10.13;;;;;;;8.59;61.98;101600.16;5009254;28;20100;-64
2022/02/04 03:41:54;;;;;;;16.30;10.90;;;;;;;8.59;61.85;101594.91;5009905;28;20046;-64
2022/02/04 03:44:21;;;;;;;17.27;11.57;;;;;;;8.60;62.19;101605.31;5010209;28;20510;-64
2022/02/04 03:46:47;;;;;;;17.77;10.63;;;;;;;8.58;62.22;101598.44;5010121;28;20100;-64
2022/02/04 03:49:14;;;;;;;14.52;10.75;;;;;;;8.55;62.41;101599.41;5009948;28;20046;-64
2022/02/04 03:51:41;;;;;;;17.73;11.02;;;;;;;8.56;62.71;101595.88;5009929;28;20494;-64
2022/02/04 03:54:07;;;;;;;18.08;10.77;;;;;;;8.55;62.67;101596.78;5009526;28;20600;-64
2022/02/04 03:56:34;;;;;;;20.67;11.40;;;;;;;8.56;62.95;101595.00;5009476;28;20050;-64
2022/02/04 03:59:01;;;;;;;22.58;11.25;;;;;;;8.55;62.98;101594.16;5009909;28;20050;-64
2022/02/04 04:01:27;;;;;;;23.73;11.15;;;;;;;8.55;62.74;101583.69;5009642;28;20061;-64
2022/02/04 04:03:54;;;;;;;17.73;10.85;;;;;;;8.55;62.72;101586.31;5010205;28;20049;-64
2022/02/04 04:06:20;;;;;;;19.60;11.05;;;;;;;8.54;62.90;101584.59;5009654;28;20049;-64
2022/02/04 04:08:51;;;;;;;19.15;10.82;;;;;;;8.53;63.11;101588.13;5009887;28;20042;-64
2022/02/04 04:11:18;;;;;;;15.82;11.18;;;;;;;8.53;63.10;101582.88;5009865;28;20461;-64
2022/02/04 04:13:45;;;;;;;20.17;10.30;;;;;;;8.55;63.10;101591.53;5009332;28;20064;-64
2022/02/04 04:16:13;;;;;;;19.63;10.70;;;;;;;8.54;63.29;101581.16;5008703;28;20054;-64
2022/02/04 04:18:40;;;;;;;18.23;11.52;;;;;;;8.51;63.60;101576.88;5008348;28;20060;-64
2022/02/04 04:21:06;;;;;;;17.83;10.63;;;;;;;8.52;63.81;101572.47;5008669;28;20049;-64
2022/02/04 04:23:33;;;;;;;15.82;11.00;;;;;;;8.51;63.88;101574.25;5008510;28;20042;-64
2022/02/04 04:25:59;;;;;;;16.65;10.70;;;;;;;8.52;63.83;101570.75;5008095;28;21708;-64
2022/02/04 04:28:26;;;;;;;19.42;11.15;;;;;;;8.49;63.96;101571.69;5008217;28;20426;-63
2022/02/04 04:30:53;;;;;;;19.13;10.68;;;;;;;8.50;64.05;101577.78;5008479;28;20189;-64
2022/02/04 04:33:19;;;;;;;20.35;11.10;;;;;;;8.46;64.30;101573.56;5008743;28;20053;-65
2022/02/04 04:35:46;;;;;;;20.75;10.88;;;;;;;8.49;64.35;101570.81;5008222;28;20038;-64
2022/02/04 04:38:29;;;;;;;16.42;11.02;;;;;;;8.48;64.54;101564.75;5008123;28;20045;-64
2022/02/04 05:30:04;;;;;;;21.00;11.90;;;;;;;8.38;65.32;101580.78;5008634;28;20050;-64
2022/02/04 05:32:30;;;;;;;18.73;11.68;;;;;;;8.38;65.15;101579.03;5008699;28;20347;-64
2022/02/04 05:34:58;;;;;;;18.50;12.38;;;;;;;8.34;65.20;101585.25;5008760;28;20042;-65
2022/02/04 05:37:24;;;;;;;17.63;11.90;;;;;;;8.31;65.40;101590.59;5008671;28;20050;-64
2022/02/04 05:39:57;;;;;;;17.70;11.60;;;;;;;8.27;65.35;101592.44;5008875;28;20454;-65
2022/02/04 05:42:31;;;;;;;20.42;11.20;;;;;;;8.29;65.14;101592.38;5008687;28;20054;-64
2022/02/04 05:45:14;;;;;;;17.55;11.90;;;;;;;8.29;65.30;101600.22;5008653;28;20046;-64
2022/02/04 05:47:41;;;;;;;16.65;12.15;;;;;;;8.25;65.46;101602.13;5008531;28;20061;-64
2022/02/04 06:01:15;;;;;;;16.35;10.90;;;;;;;8.27;65.49;101586.38;5008409;28;20046;-64
2022/02/04 06:23:09;;;;;;;16.85;10.57;;;;;;;8.37;65.43;101589.50;4992471;28;20054;-61
2022/02/04 06:25:38;;;;;;;20.75;11.75;;;;;;;8.37;65.37;101584.28;4992090;28;20046;-62
2022/02/04 06:28:05;;;;;;;20.48;11.80;;;;;;;8.38;65.60;101589.50;4992132;28;20058;-62
2022/02/04 06:30:32;;;;;;;18.67;12.18;;;;;;;8.39;65.40;101596.41;4991907;28;20054;-61
2022/02/04 06:33:00;;;;;;;20.67;12.00;;;;;;;8.39;65.52;101598.19;4992180;28;20052;-62
2022/02/04 06:35:29;;;;;;;19.98;12.02;;;;;;;8.38;65.69;101602.56;4992130;28;20436;-62
2022/02/04 06:37:55;;;;;;;16.30;11.27;;;;;;;8.38;65.70;101599.94;4992093;28;20054;-62
2022/02/04 06:40:22;;;;;;;19.58;12.05;;;;;;;8.39;65.61;101603.41;5005709;28;20042;-62
2022/02/04 06:42:49;;;;;;;21.08;11.43;;;;;;;8.39;65.65;101596.41;5011829;28;20129;-62
2022/02/04 06:45:16;;;;;;;18.42;12.10;;;;;;;8.40;65.83;101595.50;5011595;28;20053;-62
2022/02/04 06:47:43;;;;;;;19.60;11.80;;;;;;;8.41;65.83;101597.22;5011386;28;20053;-62
2022/02/04 06:50:09;;;;;;;20.70;8.95;;;;;;;8.47;66.14;101594.44;5011302;28;20140;-62
2022/02/04 06:52:36;;;;;;;18.15;11.00;;;;;;;8.51;66.02;101603.03;5011193;28;20045;-63
2022/02/04 06:55:03;;;;;;;19.38;11.38;;;;;;;8.77;65.51;101599.53;5010718;28;20081;-61
2022/02/04 06:57:30;;;;;;;21.20;11.55;;;;;;;8.65;65.85;101595.56;5010507;28;20046;-61
2022/02/04 06:59:58;;;;;;;23.98;13.05;;;;;;;8.62;65.76;101605.25;5009631;28;20108;-62
2022/02/04 07:02:27;;;;;;;21.65;11.95;;;;;;;8.60;65.87;101599.25;5010939;28;20058;-62
2022/02/04 07:04:54;;;;;;;20.40;11.98;;;;;;;8.58;65.97;101601.06;5010891;28;20529;-62
2022/02/04 07:07:20;;;;;;;24.77;14.27;;;;;;;8.56;66.09;101598.50;5010763;28;20050;-61
2022/02/04 07:09:54;;;;;;;19.65;12.80;;;;;;;8.55;66.07;101602.00;5010532;28;20042;-62
2022/02/04 07:17:33;;;;;;;25.83;13.88;;;;;;;8.57;65.90;101594.09;5010484;28;20054;-62
2022/02/04 07:20:00;;;;;;;25.65;16.58;;;;;;;8.59;65.76;101608.00;5010892;28;20052;-62
2022/02/04 07:22:34;;;;;;;28.40;16.85;;;;;;;8.62;65.78;101605.25;5010364;28;20071;-62
2022/02/04 07:25:05;;;;;;;28.25;19.45;;;;;;;8.64;65.86;101596.44;5010853;28;20042;-62
2022/02/04 07:27:34;;;;;;;26.42;17.02;;;;;;;8.68;65.74;101599.81;5010655;28;20096;-61
2022/02/04 07:30:03;;;;;;;24.05;13.98;;;;;;;8.72;65.64;101603.19;5009539;28;20050;-61
2022/02/04 07:32:40;;;;;;;25.20;13.95;;;;;;;8.72;65.63;101600.56;5010563;28;20100;-61
2022/02/04 07:40:56;;;;;;;51.00;21.50;;;;;;;8.73;65.75;101612.75;5010609;28;20080;-60
2022/02/04 07:43:25;;;;;;;34.40;19.20;;;;;;;8.70;65.78;101610.22;5010457;28;20056;-61
2022/02/04 07:45:52;;;;;;;30.27;16.80;;;;;;;8.75;65.74;101617.03;5009156;28;20490;-60
2022/02/04 07:48:19;;;;;;;56.85;25.58;;;;;;;8.75;65.70;101619.63;5010303;28;20109;-60
2022/02/04 07:50:48;;;;;;;34.88;17.80;;;;;;;8.77;65.73;101617.84;5010404;28;20482;-60
2022/02/04 07:53:15;;;;;;;26.08;14.50;;;;;;;8.74;65.90;101612.69;5009882;28;20054;-61
2022/02/04 07:55:43;;;;;;;21.42;13.45;;;;;;;8.75;65.78;101609.19;5009974;28;20465;-61
2022/02/04 07:58:11;;;;;;;20.23;12.85;;;;;;;8.81;65.88;101611.59;5010047;28;20042;-61
2022/02/04 08:00:40;;;;;;;22.38;12.88;;;;;;;8.79;65.78;101618.63;5007983;28;20415;-61
2022/02/04 08:03:29;;;;;;;21.05;12.85;;;;;;;8.80;65.88;101624.72;5007178;28;20049;-61
2022/02/04 08:05:59;;;;;;;25.17;12.75;;;;;;;8.77;65.91;101612.59;5002521;28;20053;-61
2022/02/04 08:08:37;;;;;;;25.40;14.50;;;;;;;8.81;65.91;101614.19;5009950;28;20046;-61
2022/02/04 08:11:17;;;;;;;26.10;16.92;;;;;;;8.85;65.75;101611.47;5007857;28;20457;-61
2022/02/04 08:14:09;;;;;;;22.65;13.05;;;;;;;8.88;65.66;101603.50;5009540;28;20103;-61
2022/02/04 08:17:02;;;;;;;21.58;12.38;;;;;;;8.91;65.64;101601.66;5008497;28;20056;-61
2022/02/04 08:27:50;;;;;;;23.02;13.15;;;;;;;9.03;65.35;101617.78;4989611;28;20064;-61
2022/02/04 08:33:34;;;;;;;23.70;13.67;;;;;;;9.09;65.11;101612.34;4989397;28;20407;-61
2022/02/04 08:54:38;;;;;;;27.73;13.53;;;;;;;9.32;65.06;101625.44;5009157;28;20486;-62
2022/02/04 08:57:17;;;;;;;28.70;14.02;;;;;;;9.36;65.20;101617.47;5009232;28;20502;-62
2022/02/04 09:02:17;;;;;;;30.45;16.02;;;;;;;9.40;65.33;101622.53;5008124;28;20045;-62
2022/02/04 09:04:47;;;;;;;24.77;14.88;;;;;;;9.45;65.23;101617.13;5008725;28;20046;-62
2022/02/04 09:07:18;;;;;;;26.67;15.68;;;;;;;9.50;65.06;101616.94;5008827;28;20482;-62
2022/02/04 09:22:56;;;;;;;30.95;15.77;;;;;;;9.75;64.52;101633.44;5008200;28;20277;-62
2022/02/04 09:25:25;;;;;;;26.58;15.68;;;;;;;9.81;64.51;101632.34;5008643;28;20136;-62
2022/02/04 09:27:52;;;;;;;27.80;15.35;;;;;;;9.86;64.48;101633.03;5007861;28;20136;-62
2022/02/04 09:30:21;;;;;;;27.80;14.63;;;;;;;9.91;63.99;101644.19;5008437;28;20072;-62
2022/02/04 09:32:47;;;;;;;20.67;14.63;;;;;;;9.92;64.01;101639.81;5008107;28;20558;-62
2022/02/04 09:35:24;;;;;;;22.63;14.70;;;;;;;9.96;63.89;101636.97;5008841;28;20065;-62
2022/02/04 09:37:53;;;;;;;23.25;13.40;;;;;;;10.00;63.80;101632.47;5008760;28;20465;-62
2022/02/04 09:40:21;;;;;;;26.42;14.40;;;;;;;10.06;63.66;101631.38;5012532;28;20042;-62
2022/02/04 09:42:49;;;;;;;23.48;13.82;;;;;;;10.12;63.47;101634.59;5011813;28;20069;-62
2022/02/04 09:45:20;;;;;;;22.60;13.60;;;;;;;10.15;63.44;101638.88;5011307;28;20050;-62
2022/02/04 09:48:06;;;;;;;23.30;13.55;;;;;;;10.23;63.13;101633.31;5012518;28;20138;-62
2022/02/04 09:50:37;;;;;;;22.58;14.13;;;;;;;10.28;62.88;101636.59;5011999;28;20058;-62
2022/02/04 10:07:55;;;;;;;24.33;12.38;;;;;;;10.62;61.84;101633.44;5011526;28;20494;-63
2022/02/04 10:15:58;;;;;;;25.33;13.38;;;;;;;10.65;61.53;101631.63;5011658;28;20053;-62
2022/02/04 10:18:45;;;;;;;19.40;12.48;;;;;;;10.76;61.14;101624.16;5010627;28;20053;-62
2022/02/04 10:21:13;;;;;;;22.42;11.90;;;;;;;10.85;60.65;101625.53;5011300;28;20042;-62
2022/02/04 10:23:47;;;;;;;23.98;12.13;;;;;;;10.94;60.53;101625.09;5011895;28;20061;-62
2022/02/04 10:26:15;;;;;;;23.45;12.02;;;;;;;10.99;60.38;101615.25;5011218;28;20144;-62
2022/02/04 10:28:43;;;;;;;22.27;11.35;;;;;;;11.00;60.19;101624.84;4991839;28;20056;-62
2022/02/04 10:31:14;;;;;;;21.17;12.90;;;;;;;11.02;60.01;101619.50;4998623;28;20053;-62
2022/02/04 10:34:07;;;;;;;20.67;11.88;;;;;;;11.06;60.00;101619.31;5011395;28;20046;-62
2022/02/04 10:36:34;;;;;;;21.65;11.85;;;;;;;11.11;59.86;101611.25;5006662;28;20046;-62
2022/02/04 10:39:30;;;;;;;29.75;18.58;;;;;;;11.11;59.61;101614.72;5006687;28;20060;-62
2022/02/04 10:42:10;;;;;;;21.15;14.30;;;;;;;11.14;59.70;101610.25;5010956;28;20140;-62
2022/02/04 10:44:51;;;;;;;13.77;8.00;;;;;;;11.11;59.61;101606.81;5009806;28;20057;-62
2022/02/04 11:01:57;;;;;;;13.07;7.95;;;;;;;11.45;58.62;101588.66;5009819;28;20046;-62
2022/02/04 11:04:36;;;;;;;19.10;8.17;;;;;;;11.39;58.58;101574.03;5010643;28;20046;-62
2022/02/04 11:55:20;;;;;;;15.70;8.02;;;;;;;11.24;59.57;101519.59;4989955;28;20058;-63
2022/02/04 11:57:56;;;;;;;41.65;21.83;;;;;;;11.24;59.45;101509.91;5002761;28;20056;-63
2022/02/04 12:00:28;;;;;;;23.20;13.10;;;;;;;11.32;59.23;101512.16;5008340;28;20522;-63
2022/02/04 12:02:56;;;;;;;23.67;13.68;;;;;;;11.38;59.03;101501.38;5008722;28;20050;-62
2022/02/04 12:05:23;;;;;;;23.08;13.48;;;;;;;11.47;59.02;101494.81;5009279;28;20128;-62
2022/02/04 12:08:09;;;;;;;20.45;10.23;;;;;;;11.60;58.73;101493.31;5009299;28;20058;-63
2022/02/04 12:10:48;;;;;;;10.63;6.28;;;;;;;11.69;58.44;101480.63;5009446;28;20656;-63
2022/02/04 12:13:17;;;;;;;15.48;5.63;;;;;;;12.01;57.97;101488.72;5007909;28;20787;-61
2022/02/04 12:16:10;;;;;;;16.85;8.88;;;;;;;11.91;58.33;101478.63;5008032;28;20053;-62
2022/02/04 12:18:39;;;;;;;12.13;7.88;;;;;;;11.93;58.25;101475.91;5009436;28;20050;-61
2022/02/04 12:21:06;;;;;;;34.45;18.92;;;;;;;12.12;57.57;101475.88;5009101;28;20149;-61
2022/02/04 12:23:34;;;;;;;24.20;14.57;;;;;;;12.40;57.05;101477.06;5009457;28;20093;-62
2022/02/04 12:26:09;;;;;;;13.48;6.57;;;;;;;12.56;56.42;101464.78;5006056;28;20099;-62
2022/02/04 12:28:37;;;;;;;;;;;;;;;12.99;55.28;101466.00;5018378;28;20053;-61
2022/02/04 12:31:14;;;;;;;34.30;19.85;;;;;;;13.48;54.01;101458.00;5023214;28;19965;-61
2022/02/04 12:33:42;;;;;;;11.55;5.68;;;;;;;13.55;53.87;101455.88;5028174;28;20060;-61
2022/02/04 12:36:18;;;;;;;14.43;7.85;;;;;;;13.42;54.14;101446.97;5028098;28;20053;-62
2022/02/04 12:38:46;;;;;;;18.48;8.20;;;;;;;13.32;54.41;101454.53;5028058;28;20052;-62
2022/02/04 12:41:21;;;;;;;15.18;6.65;;;;;;;13.41;54.37;101442.63;5027860;28;20158;-62
2022/02/04 12:43:53;;;;;;;20.63;7.90;;;;;;;13.81;53.25;101440.31;5026581;28;20045;-61
2022/02/04 12:46:21;;;;;;;16.10;7.20;;;;;;;14.10;52.50;101443.00;5011251;28;20077;-62
2022/02/04 12:49:06;;;;;;;17.80;6.03;;;;;;;14.11;52.31;101432.38;5009021;28;20410;-62
2022/02/04 12:54:43;;;;;;;11.32;6.72;;;;;;;13.85;52.86;101418.94;5009033;28;20049;-61
2022/02/04 13:11:04;;;;;;;26.20;13.95;;;;;;;13.61;53.14;101400.16;5008285;28;20049;-60
2022/02/04 13:13:45;;;;;;;14.73;7.75;;;;;;;13.84;52.63;101401.41;5009871;28;20046;-61
2022/02/04 13:16:24;;;;;;;14.75;7.63;;;;;;;13.85;52.55;101397.84;5012211;28;20042;-61
2022/02/04 13:18:52;;;;;;;15.02;6.82;;;;;;;13.95;52.34;101400.75;5011761;28;20045;-61
2022/02/04 13:21:21;;;;;;;14.13;7.07;;;;;;;13.42;53.27;101388.97;5011870;28;20046;-61
2022/02/04 13:23:51;;;;;;;14.70;6.82;;;;;;;13.23;54.07;101390.03;5012987;28;20049;-62
2022/02/04 13:26:23;;;;;;;13.20;6.80;;;;;;;13.15;54.17;101389.59;5012663;28;20061;-61
2022/02/04 13:28:56;;;;;;;15.93;8.07;;;;;;;13.07;54.30;101387.41;5002893;28;20054;-61
2022/02/04 13:31:23;;;;;;;56.42;25.70;;;;;;;13.10;54.28;101375.84;5000823;28;20042;-62
2022/02/04 13:33:52;;;;;;;38.42;18.45;;;;;;;13.57;53.14;101385.44;5011509;28;20049;-61
2022/02/04 13:46:53;;;;;;;24.05;10.93;;;;;;;13.69;53.08;101368.88;5011837;28;20046;-62
2022/02/04 13:49:54;;;;;;;24.23;10.27;;;;;;;13.81;52.89;101369.94;5011771;28;20454;-62
2022/02/04 13:52:37;;;;;;;24.65;10.77;;;;;;;14.29;51.57;101367.03;5011284;28;20069;-62
2022/02/04 13:57:49;;;;;;;18.38;9.25;;;;;;;14.66;50.85;101367.38;5000578;28;20054;-62
2022/02/04 14:00:30;;;;;;;;;;;;;;;14.63;50.91;101364.06;5001017;28;20050;-63
2022/02/04 14:03:12;;;;;;;42.65;18.00;;;;;;;14.29;52.22;101360.91;5000046;28;20321;-62
2022/02/04 14:05:47;;;;;;;29.42;11.77;;;;;;;14.75;50.83;101350.06;5000310;28;20050;-62
2022/02/04 14:08:19;;;;;;;14.10;8.13;;;;;;;14.61;51.30;101352.72;5000261;28;20050;-61
2022/02/04 14:10:56;;;;;;;21.48;10.55;;;;;;;14.33;51.81;101357.13;5001352;28;20054;-62
2022/02/04 14:13:26;;;;;;;15.90;8.00;;;;;;;14.83;50.84;101353.09;5003265;28;20447;-62
2022/02/04 14:16:11;;;;;;;17.88;8.43;;;;;;;15.13;50.17;101346.72;5001116;28;20050;-61
2022/02/04 14:18:41;;;;;;;90.68;54.97;;;;;;;15.06;50.18;101347.22;5007660;28;20046;-62
2022/02/04 14:21:11;;;;;;;54.47;39.95;;;;;;;15.09;50.18;101341.75;5011167;28;20053;-61
2022/02/04 14:23:40;;;;;;;17.45;9.25;;;;;;;15.26;50.03;101351.19;5010738;28;20050;-62
2022/02/04 14:26:11;;;;;;;16.38;8.48;;;;;;;14.92;50.72;101348.13;5011653;28;20426;-62
2022/02/04 14:28:49;;;;;;;19.33;9.50;;;;;;;14.79;51.02;101340.16;5011142;28;20161;-62
2022/02/04 15:06:38;;;;;;;30.73;15.40;;;;;;;13.72;53.25;101323.00;5010482;28;20054;-62
2022/02/04 15:09:12;;;;;;;17.75;10.05;;;;;;;13.88;53.08;101331.69;5010777;28;20041;-62
2022/02/04 15:11:43;;;;;;;15.75;9.10;;;;;;;13.85;52.88;101321.34;5010203;28;20042;-62
2022/02/04 15:14:15;;;;;;;49.45;23.95;;;;;;;14.06;52.27;101315.69;5009718;28;20050;-61
2022/02/04 15:16:44;;;;;;;18.27;9.35;;;;;;;14.17;52.18;101312.34;5010591;28;20049;-61
2022/02/04 15:19:11;;;;;;;13.50;7.45;;;;;;;14.17;52.41;101305.28;5009942;28;20049;-62
2022/02/04 15:21:41;;;;;;;15.40;8.32;;;;;;;14.18;52.33;101311.41;5009797;28;20050;-62
2022/02/04 15:24:10;;;;;;;16.08;8.70;;;;;;;14.22;52.36;101302.38;5003601;28;20156;-62
2022/02/04 15:26:37;;;;;;;14.35;8.30;;;;;;;14.01;52.95;101309.84;5002056;28;20101;-62
2022/02/04 15:29:08;;;;;;;14.07;7.68;;;;;;;13.52;54.17;101319.81;4990066;28;20064;-62
2022/02/04 15:34:05;;;;;;;16.90;8.38;;;;;;;12.96;55.78;101322.13;5010271;28;20120;-62
2022/02/04 15:36:41;;;;;;;14.85;7.53;;;;;;;12.87;56.27;101314.78;5009597;28;20846;-62
2022/02/04 15:39:10;;;;;;;18.77;7.70;;;;;;;12.69;56.66;101321.94;5010258;28;20050;-62
2022/02/04 15:41:42;;;;;;;15.63;9.73;;;;;;;12.45;57.44;101324.16;5009831;28;20058;-63
2022/02/04 15:44:21;;;;;;;37.13;18.80;;;;;;;12.37;57.80;101333.31;5010058;28;20406;-61
2022/02/04 15:49:32;;;;;;;15.68;8.75;;;;;;;12.10;58.66;101330.41;5009787;28;20124;-62
2022/02/04 16:04:44;;;;;;;19.90;12.63;;;;;;;11.81;60.17;101335.41;5009012;28;20056;-63
2022/02/04 16:07:11;;;;;;;19.05;9.63;;;;;;;11.71;60.43;101339.44;5009796;28;20049;-61
2022/02/04 16:09:38;;;;;;;16.88;8.75;;;;;;;11.65;60.57;101337.13;5008992;28;20046;-62
2022/02/04 16:12:19;;;;;;;15.60;7.70;;;;;;;11.62;60.75;101332.88;5009245;28;20075;-62
2022/02/04 16:14:55;;;;;;;17.35;8.23;;;;;;;11.58;61.14;101332.19;5009559;28;20050;-62
2022/02/04 16:17:33;;;;;;;16.67;8.30;;;;;;;11.55;61.05;101334.97;5009709;28;20060;-63
2022/02/04 16:20:13;;;;;;;17.73;9.25;;;;;;;11.54;61.14;101341.16;5009385;28;20486;-62
2022/02/04 16:23:05;;;;;;;17.15;8.68;;;;;;;11.51;61.34;101349.19;4989126;28;20101;-62
2022/02/04 16:25:41;;;;;;;17.23;8.52;;;;;;;11.47;61.35;101345.03;4989890;28;20049;-62
2022/02/04 16:30:53;;;;;;;25.20;16.38;;;;;;;11.46;61.72;101355.63;4993765;28;20379;-62
2022/02/04 16:33:20;;;;;;;22.67;12.80;;;;;;;11.41;61.88;101355.84;5009156;28;20064;-62
2022/02/04 16:35:47;;;;;;;18.65;10.80;;;;;;;11.39;62.18;101355.94;5009709;28;20049;-62
2022/02/04 16:38:17;;;;;;;19.17;9.18;;;;;;;11.36;62.14;101358.69;5008202;28;20061;-62
2022/02/04 16:40:53;;;;;;;45.83;18.85;;;;;;;11.35;62.39;101358.78;5008406;28;20569;-62
2022/02/04 16:43:19;;;;;;;59.92;26.60;;;;;;;11.35;62.33;101359.63;5009224;28;20053;-62
2022/02/04 16:45:46;;;;;;;50.72;22.15;;;;;;;11.31;62.73;101358.06;5008635;28;20112;-62
2022/02/04 16:48:13;;;;;;;38.00;18.42;;;;;;;11.30;62.67;101352.91;5009268;28;20057;-62
2022/02/04 16:50:43;;;;;;;32.10;15.75;;;;;;;11.27;62.73;101352.16;5009273;28;20053;-62
2022/02/04 16:53:09;;;;;;;23.95;11.85;;;;;;;11.23;62.89;101350.56;5006925;28;20400;-61
2022/02/04 16:55:36;;;;;;;23.35;11.75;;;;;;;11.20;63.26;101353.38;5007077;28;20042;-61
2022/02/04 16:58:04;;;;;;;24.92;10.45;;;;;;;11.20;63.27;101356.00;5008987;28;20042;-61
2022/02/04 17:00:33;;;;;;;28.52;13.82;;;;;;;11.19;63.34;101356.91;5008298;28;20146;-61
2022/02/04 17:03:06;;;;;;;222.45;83.00;;;;;;;11.21;63.38;101360.31;5008654;28;20038;-61
2022/02/04 17:05:55;;;;;;;26.70;10.98;;;;;;;12.14;61.65;101355.63;5008676;28;20056;-62
2022/02/04 17:08:32;;;;;;;74.03;34.92;;;;;;;12.38;61.22;101353.44;5004100;28;20569;-61
2022/02/04 17:11:11;;;;;;;34.40;14.20;;;;;;;11.88;62.61;101354.31;5007840;28;20498;-61
2022/02/04 17:13:38;;;;;;;32.60;20.48;;;;;;;11.72;62.78;101355.13;5008461;28;20409;-61
2022/02/04 17:16:05;;;;;;;38.72;21.00;;;;;;;11.60;62.86;101356.63;5008213;28;20045;-61
2022/02/04 17:18:32;;;;;;;34.13;18.15;;;;;;;11.49;63.04;101350.19;5008654;28;20093;-61
2022/02/04 17:21:02;;;;;;;56.58;31.35;;;;;;;11.37;63.14;101354.31;5008874;28;20053;-61
2022/02/04 17:23:40;;;;;;;156.98;91.00;;;;;;;11.32;63.33;101358.94;5008497;28;20042;-61
2022/02/04 17:26:06;;;;;;;34.53;18.08;;;;;;;11.26;63.43;101357.44;5008789;28;20483;-61
2022/02/04 17:28:33;;;;;;;125.70;71.20;;;;;;;11.22;63.48;101358.53;5008147;28;20057;-61
2022/02/04 17:31:01;;;;;;;56.88;31.52;;;;;;;11.16;63.56;101364.97;5008593;28;20642;-61
2022/02/04 17:33:28;;;;;;;40.22;23.73;;;;;;;11.09;63.69;101360.91;5008724;28;20054;-61
2022/02/04 17:35:56;;;;;;;24.75;15.02;;;;;;;11.07;63.74;101360.13;5008772;28;20053;-61
2022/02/04 17:38:24;;;;;;;27.05;15.27;;;;;;;11.00;64.00;101362.22;5009171;28;20056;-61
2022/02/04 17:40:53;;;;;;;22.70;12.73;;;;;;;10.97;63.96;101358.88;5008488;28;20042;-61
2022/02/04 17:43:20;;;;;;;22.55;12.18;;;;;;;10.93;64.09;101364.28;5008924;28;20050;-61
2022/02/04 17:45:47;;;;;;;37.58;14.35;;;;;;;10.92;64.19;101361.75;5008678;28;20071;-62
2022/02/04 17:48:24;;;;;;;29.23;15.65;;;;;;;10.91;64.30;101355.63;5008489;28;20049;-62
2022/02/04 17:51:19;;;;;;;74.63;40.20;;;;;;;10.90;64.34;101366.22;5008314;28;20104;-62
2022/02/04 17:53:53;;;;;;;34.78;16.77;;;;;;;10.84;64.41;101369.13;5008474;28;20052;-61
2022/02/04 17:56:51;;;;;;;27.08;12.98;;;;;;;10.85;64.40;101376.94;5008753;28;20042;-62
2022/02/04 18:02:04;;;;;;;28.33;14.15;;;;;;;10.75;64.56;101370.41;5012370;28;20046;-61
2022/02/04 18:07:31;;;;;;;19.63;12.15;;;;;;;10.68;64.86;101379.50;5012063;28;20046;-61
2022/02/04 18:10:29;;;;;;;18.65;12.20;;;;;;;10.66;65.04;101373.47;5012138;28;20141;-61
2022/02/04 18:12:59;;;;;;;20.80;11.95;;;;;;;10.65;65.10;101377.03;5011889;28;20099;-61